createdAt,value
2022-10-23T00:01:21.731Z,5.30
2022-10-23T00:03:52.195Z,5.03
2022-10-23T00:06:19.552Z,4.87
2022-10-23T00:08:47.958Z,5.47
2022-10-23T00:11:17.463Z,4.90
2022-10-23T00:13:44.686Z,4.90
2022-10-23T00:16:11.423Z,3.33
2022-10-23T00:18:39.102Z,4.37
2022-10-23T00:21:08.198Z,4.07
2022-10-23T00:23:35.748Z,3.63
2022-10-23T00:26:02.881Z,3.60
2022-10-23T00:28:29.562Z,5.83
2022-10-23T00:30:56.495Z,4.43
2022-10-23T00:33:23.154Z,4.30
2022-10-23T00:35:49.839Z,4.80
2022-10-23T00:38:16.577Z,5.90
2022-10-23T00:40:45.253Z,6.50
2022-10-23T00:43:24.749Z,7.97
2022-10-23T00:45:52.030Z,8.37
2022-10-23T00:48:18.943Z,7.83
2022-10-23T00:50:47.691Z,7.60
2022-10-23T00:53:16.919Z,6.30
2022-10-23T00:55:46.854Z,7.27
2022-10-23T00:58:15.060Z,7.67
2022-10-23T01:00:48.681Z,6.70
2022-10-23T01:03:17.342Z,8.37
2022-10-23T01:06:05.222Z,7.37
2022-10-23T01:08:49.979Z,8.30
2022-10-23T01:11:45.944Z,7.50
2022-10-23T01:14:19.144Z,11.73
2022-10-23T01:17:19.538Z,7.73
2022-10-23T01:20:20.974Z,10.30
2022-10-23T01:22:56.709Z,7.43
2022-10-23T01:25:41.674Z,8.07
2022-10-23T01:28:20.568Z,7.43
2022-10-23T01:30:48.484Z,6.90
2022-10-23T01:33:29.232Z,9.03
2022-10-23T01:36:06.739Z,8.73
2022-10-23T01:39:01.328Z,8.00
2022-10-23T01:41:28.199Z,7.90
2022-10-23T01:43:57.059Z,7.70
2022-10-23T01:46:27.998Z,9.27
2022-10-23T01:48:57.646Z,7.67
2022-10-23T01:51:27.408Z,7.30
2022-10-23T01:53:59.889Z,7.70
2022-10-23T01:56:32.091Z,7.30
2022-10-23T01:59:04.126Z,7.83
2022-10-23T02:01:39.672Z,8.70
2022-10-23T02:04:10.284Z,7.23
2022-10-23T02:06:36.946Z,8.03
2022-10-23T02:09:04.572Z,8.73
2022-10-23T02:11:37.221Z,8.80
2022-10-23T02:14:20.705Z,7.83
2022-10-23T02:16:50.969Z,8.13
2022-10-23T02:19:36.518Z,9.27
2022-10-23T02:22:14.317Z,9.80
2022-10-23T02:24:50.936Z,10.43
2022-10-23T02:27:23.884Z,10.13
2022-10-23T02:30:17.003Z,10.07
2022-10-23T02:32:53.500Z,10.57
2022-10-23T02:35:23.118Z,9.60
2022-10-23T02:37:58.140Z,9.27
2022-10-23T02:40:40.667Z,9.60
2022-10-23T02:43:13.860Z,9.60
2022-10-23T02:45:54.051Z,9.27
2022-10-23T02:48:26.310Z,8.97
2022-10-23T02:51:07.429Z,12.10
2022-10-23T02:53:53.368Z,13.37
2022-10-23T02:56:36.649Z,11.17
2022-10-23T02:59:32.406Z,12.73
2022-10-23T03:02:18.142Z,16.57
2022-10-23T03:04:46.319Z,14.90
2022-10-23T03:07:14.341Z,13.57
2022-10-23T03:09:42.461Z,13.10
2022-10-23T03:12:09.132Z,13.73
2022-10-23T03:14:36.790Z,14.53
2022-10-23T03:17:04.592Z,15.40
2022-10-23T03:19:31.198Z,13.67
2022-10-23T03:21:58.546Z,13.20
2022-10-23T03:24:25.389Z,13.80
2022-10-23T03:26:52.182Z,12.50
2022-10-23T03:29:27.568Z,12.87
2022-10-23T03:31:55.795Z,13.90
2022-10-23T03:34:22.474Z,11.60
2022-10-23T03:36:49.102Z,11.80
2022-10-23T03:39:18.718Z,10.80
2022-10-23T03:41:45.473Z,13.07
2022-10-23T03:44:14.651Z,10.87
2022-10-23T03:46:44.412Z,12.10
2022-10-23T03:49:10.991Z,10.67
2022-10-23T03:51:41.554Z,11.40
2022-10-23T03:54:08.639Z,10.43
2022-10-23T03:56:35.995Z,12.40
2022-10-23T03:59:02.615Z,10.83
2022-10-23T04:01:29.325Z,11.57
2022-10-23T04:03:56.087Z,10.87
2022-10-23T04:06:25.063Z,10.27
2022-10-23T04:08:55.702Z,11.90
2022-10-23T04:11:22.357Z,13.77
2022-10-23T04:13:49.115Z,19.50
2022-10-23T04:16:16.059Z,17.93
2022-10-23T04:18:44.423Z,16.13
2022-10-23T04:21:11.794Z,15.57
2022-10-23T04:23:38.935Z,13.33
2022-10-23T04:26:11.180Z,13.23
2022-10-23T04:28:38.043Z,10.30
2022-10-23T04:31:04.763Z,10.13
2022-10-23T04:33:31.402Z,8.47
2022-10-23T04:35:58.133Z,10.97
2022-10-23T04:38:26.117Z,12.77
2022-10-23T04:40:52.793Z,12.77
2022-10-23T04:43:22.705Z,12.20
2022-10-23T04:45:50.208Z,12.03
2022-10-23T04:48:16.883Z,11.07
2022-10-23T04:51:10.552Z,9.30
2022-10-23T04:54:12.586Z,9.67
2022-10-23T04:56:42.048Z,11.87
2022-10-23T04:59:13.662Z,11.13
2022-10-23T05:01:41.122Z,9.67
2022-10-23T05:04:09.282Z,12.97
2022-10-23T05:06:58.709Z,10.10
2022-10-23T05:09:51.678Z,10.03
2022-10-23T05:12:41.367Z,8.83
2022-10-23T05:15:08.301Z,10.33
2022-10-23T05:17:37.555Z,9.30
2022-10-23T05:20:26.653Z,9.93
2022-10-23T05:22:56.902Z,8.83
2022-10-23T05:25:24.785Z,9.50
2022-10-23T05:27:59.863Z,8.70
2022-10-23T05:30:26.679Z,8.90
2022-10-23T05:32:54.626Z,9.23
2022-10-23T05:35:24.472Z,9.50
2022-10-23T05:37:54.543Z,8.57
2022-10-23T05:40:24.071Z,8.73
2022-10-23T05:42:56.538Z,10.13
2022-10-23T05:45:34.376Z,9.20
2022-10-23T05:48:35.174Z,9.53
2022-10-23T05:51:23.063Z,10.40
2022-10-23T05:54:16.075Z,9.97
2022-10-23T05:56:57.952Z,10.37
2022-10-23T05:59:57.067Z,10.00
2022-10-23T06:02:26.718Z,9.60
2022-10-23T06:05:00.126Z,9.97
2022-10-23T06:07:30.187Z,9.80
2022-10-23T06:10:00.449Z,9.77
2022-10-23T06:12:27.266Z,11.40
2022-10-23T06:14:54.167Z,10.17
2022-10-23T06:17:28.023Z,11.90
2022-10-23T06:20:00.709Z,10.43
2022-10-23T06:22:27.972Z,10.90
2022-10-23T06:25:04.582Z,12.67
2022-10-23T06:27:31.374Z,12.53
2022-10-23T06:29:58.025Z,12.40
2022-10-23T06:32:24.737Z,13.10
2022-10-23T06:35:07.401Z,14.23
2022-10-23T06:37:34.561Z,13.00
2022-10-23T06:40:22.033Z,12.80
2022-10-23T06:42:57.232Z,15.37
2022-10-23T06:45:46.163Z,14.10
2022-10-23T06:48:12.786Z,14.93
2022-10-23T06:50:58.880Z,15.57
2022-10-23T06:53:35.988Z,15.30
2022-10-23T06:56:12.045Z,12.40
2022-10-23T06:58:40.500Z,14.43
2022-10-23T07:01:14.612Z,13.50
2022-10-23T07:03:42.783Z,13.97
2022-10-23T07:06:10.698Z,13.50
2022-10-23T07:08:38.424Z,13.90
2022-10-23T07:11:18.071Z,13.90
2022-10-23T07:13:47.285Z,14.70
2022-10-23T07:16:19.602Z,15.00
2022-10-23T07:18:47.190Z,14.80
2022-10-23T07:21:31.188Z,15.80
2022-10-23T07:24:15.461Z,15.07
2022-10-23T07:26:42.514Z,14.70
2022-10-23T07:29:10.139Z,14.80
2022-10-23T07:31:36.926Z,14.90
2022-10-23T07:34:22.145Z,15.03
2022-10-23T07:37:00.318Z,14.90
2022-10-23T07:39:27.154Z,15.70
2022-10-23T07:41:53.808Z,14.70
2022-10-23T07:44:22.091Z,15.07
2022-10-23T07:46:51.166Z,15.27
2022-10-23T07:49:17.926Z,14.37
2022-10-23T07:51:49.020Z,14.83
2022-10-23T07:54:18.862Z,15.23
2022-10-23T07:56:48.287Z,14.67
2022-10-23T07:59:24.084Z,15.20
2022-10-23T08:01:57.804Z,14.37
2022-10-23T08:04:30.726Z,13.90
2022-10-23T08:07:07.621Z,14.57
2022-10-23T08:09:39.616Z,14.17
2022-10-23T08:12:07.815Z,14.90
2022-10-23T08:14:34.452Z,13.47
2022-10-23T08:19:54.872Z,13.97
2022-10-23T08:22:21.827Z,17.40
2022-10-23T08:24:48.530Z,16.87
2022-10-23T08:27:15.896Z,16.70
2022-10-23T08:29:45.591Z,18.17
2022-10-23T08:32:12.388Z,18.27
2022-10-23T08:34:54.364Z,18.07
2022-10-23T08:37:23.634Z,16.77
2022-10-23T08:39:52.651Z,17.50
2022-10-23T08:42:27.490Z,15.83
2022-10-23T08:45:36.677Z,17.07
2022-10-23T08:48:21.252Z,18.13
2022-10-23T08:51:34.659Z,16.10
2022-10-23T08:54:28.098Z,16.53
2022-10-23T08:57:02.641Z,16.80
2022-10-23T08:59:40.544Z,14.80
2022-10-23T09:03:01.378Z,15.20
2022-10-23T09:05:32.956Z,15.07
2022-10-23T09:08:18.483Z,15.07
2022-10-23T09:10:57.210Z,13.47
2022-10-23T09:13:29.969Z,13.80
2022-10-23T09:16:13.336Z,15.00
2022-10-23T09:18:41.899Z,14.17
2022-10-23T09:21:09.913Z,14.43
2022-10-23T09:23:36.874Z,14.13
2022-10-23T09:26:13.066Z,14.73
2022-10-23T09:28:49.276Z,14.20
2022-10-23T09:31:17.051Z,13.67
2022-10-23T09:34:01.224Z,14.10
2022-10-23T09:36:29.439Z,15.03
2022-10-23T09:38:59.038Z,16.57
2022-10-23T09:41:28.681Z,15.97
2022-10-23T09:44:01.073Z,16.50
2022-10-23T09:46:38.705Z,15.97
2022-10-23T09:49:05.990Z,16.90
2022-10-23T09:51:32.894Z,15.40
2022-10-23T09:54:01.200Z,14.90
2022-10-23T09:56:40.012Z,14.23
2022-10-23T09:59:31.066Z,13.50
2022-10-23T10:02:00.890Z,13.93
2022-10-23T10:04:41.508Z,12.07
2022-10-23T10:07:24.417Z,9.87
2022-10-23T10:09:53.162Z,11.23
2022-10-23T10:12:32.846Z,10.93
2022-10-23T10:15:22.398Z,9.47
2022-10-23T10:18:10.773Z,8.87
2022-10-23T10:20:43.164Z,8.40
2022-10-23T10:23:12.898Z,8.60
2022-10-23T10:25:54.716Z,7.60
2022-10-23T10:28:45.707Z,8.60
2022-10-23T10:31:37.228Z,6.57
2022-10-23T10:34:07.077Z,6.63
2022-10-23T10:37:01.647Z,6.90
2022-10-23T10:39:38.405Z,5.77
2022-10-23T10:42:24.754Z,4.70
2022-10-23T10:45:14.533Z,4.60
2022-10-23T10:47:51.741Z,4.53
2022-10-23T10:50:51.507Z,4.33
2022-10-23T10:53:44.365Z,4.30
2022-10-23T10:56:17.690Z,2.83
2022-10-23T10:58:47.358Z,2.70
2022-10-23T11:01:29.338Z,3.80
2022-10-23T11:04:11.860Z,3.00
2022-10-23T11:06:38.824Z,3.40
2022-10-23T11:09:21.032Z,2.93
2022-10-23T11:11:49.203Z,2.40
2022-10-23T11:14:22.195Z,2.90
2022-10-23T11:16:58.393Z,2.33
2022-10-23T11:19:34.591Z,2.20
2022-10-23T11:22:06.671Z,1.67
2022-10-23T11:24:48.153Z,1.83
2022-10-23T11:27:19.306Z,1.60
2022-10-23T11:30:17.161Z,2.17
2022-10-23T11:33:01.992Z,5.50
2022-10-23T11:35:41.313Z,1.90
2022-10-23T11:38:37.321Z,1.97
2022-10-23T11:41:07.153Z,2.40
2022-10-23T11:44:01.591Z,1.83
2022-10-23T11:46:32.582Z,2.20
2022-10-23T11:49:02.534Z,1.43
2022-10-23T11:51:29.238Z,1.77
2022-10-23T11:54:24.937Z,1.50
2022-10-23T11:57:11.274Z,2.97
2022-10-23T11:59:50.098Z,1.67
2022-10-23T12:02:36.779Z,1.50
2022-10-23T12:05:29.569Z,1.20
2022-10-23T12:07:58.771Z,1.50
2022-10-23T12:10:45.970Z,1.37
2022-10-23T12:13:45.644Z,1.57
2022-10-23T12:16:13.259Z,1.30
2022-10-23T12:18:51.823Z,1.23
2022-10-23T12:21:21.795Z,1.50
2022-10-23T12:23:54.665Z,1.43
2022-10-23T12:26:21.266Z,1.47
2022-10-23T12:29:18.951Z,1.47
2022-10-23T12:32:03.904Z,1.47
2022-10-23T12:34:54.473Z,1.20
2022-10-23T12:37:27.203Z,1.37
2022-10-23T12:39:56.061Z,1.40
2022-10-23T12:42:25.209Z,1.73
2022-10-23T12:45:44.450Z,1.30
2022-10-23T12:48:20.934Z,1.70
2022-10-23T12:50:53.739Z,1.20
2022-10-23T12:53:22.934Z,2.07
2022-10-23T12:56:13.075Z,1.50
2022-10-23T12:58:50.072Z,1.50
2022-10-23T13:01:31.595Z,2.10
2022-10-23T13:04:33.281Z,1.60
2022-10-23T13:07:02.870Z,1.40
2022-10-23T13:09:38.204Z,1.63
2022-10-23T13:12:30.732Z,1.70
2022-10-23T13:15:03.436Z,1.87
2022-10-23T13:17:59.240Z,1.40
2022-10-23T13:20:28.399Z,5.03
2022-10-23T13:23:18.129Z,5.80
2022-10-23T13:26:01.050Z,2.93
2022-10-23T13:28:31.686Z,2.87
2022-10-23T13:31:04.193Z,2.13
2022-10-23T13:33:43.164Z,2.13
2022-10-23T13:36:16.662Z,1.87
2022-10-23T13:38:46.186Z,1.30
2022-10-23T13:41:16.587Z,1.40
2022-10-23T13:43:44.380Z,1.57
2022-10-23T13:46:14.969Z,1.40
2022-10-23T13:48:41.599Z,1.40
2022-10-23T13:51:15.879Z,1.47
2022-10-23T13:53:42.504Z,2.40
2022-10-23T13:56:12.863Z,1.77
2022-10-23T13:58:39.906Z,1.73
2022-10-23T14:01:12.367Z,1.23
2022-10-23T14:03:39.036Z,1.73
2022-10-23T14:06:06.075Z,1.80
2022-10-23T14:08:32.684Z,1.53
2022-10-23T14:10:59.303Z,1.87
2022-10-23T14:13:25.900Z,2.00
2022-10-23T14:15:56.370Z,1.70
2022-10-23T14:18:23.318Z,1.47
2022-10-23T14:20:50.378Z,1.80
2022-10-23T14:23:17.010Z,1.83
2022-10-23T14:25:43.759Z,1.50
2022-10-23T14:28:10.385Z,1.70
2022-10-23T14:30:37.712Z,1.80
2022-10-23T14:33:05.028Z,2.30
2022-10-23T14:35:31.698Z,1.70
2022-10-23T14:37:58.648Z,1.60
2022-10-23T14:40:25.446Z,2.10
2022-10-23T14:42:52.145Z,1.80
2022-10-23T14:45:18.845Z,2.00
2022-10-23T14:47:46.328Z,2.23
2022-10-23T14:50:13.818Z,2.00
2022-10-23T14:52:40.508Z,2.10
2022-10-23T14:55:07.664Z,1.60
2022-10-23T14:57:34.314Z,2.00
2022-10-23T15:00:01.153Z,1.60
2022-10-23T15:02:27.848Z,2.17
2022-10-23T15:04:54.553Z,1.73
2022-10-23T15:07:21.585Z,1.90
2022-10-23T15:09:48.308Z,1.60
2022-10-23T15:12:14.895Z,2.10
2022-10-23T15:14:41.525Z,1.73
2022-10-23T15:17:09.775Z,2.13
2022-10-23T15:19:39.737Z,2.40
2022-10-23T15:22:06.349Z,1.80
2022-10-23T15:24:33.018Z,2.00
2022-10-23T15:27:00.331Z,2.17
2022-10-23T15:29:27.064Z,1.87
2022-10-23T15:31:57.027Z,2.10
2022-10-23T15:34:26.161Z,1.90
2022-10-23T15:36:54.254Z,2.77
2022-10-23T15:39:26.465Z,2.00
2022-10-23T15:41:56.148Z,2.27
2022-10-23T15:44:26.030Z,2.23
2022-10-23T15:46:53.188Z,2.40
2022-10-23T15:49:20.269Z,3.30
2022-10-23T15:51:46.965Z,4.27
2022-10-23T15:54:17.071Z,3.03
2022-10-23T15:56:44.463Z,4.20
2022-10-23T15:59:11.543Z,4.37
2022-10-23T16:01:38.698Z,4.00
2022-10-23T16:04:05.709Z,3.50
2022-10-23T16:06:32.467Z,4.60
2022-10-23T16:08:59.417Z,4.47
2022-10-23T16:11:28.899Z,5.20
2022-10-23T16:13:57.618Z,4.70
2022-10-23T16:16:24.428Z,5.07
2022-10-23T16:18:51.265Z,4.70
2022-10-23T16:21:21.255Z,4.67
2022-10-23T16:23:48.677Z,5.00
2022-10-23T16:26:15.445Z,4.37
2022-10-23T16:28:43.888Z,4.20
2022-10-23T16:31:20.060Z,3.80
2022-10-23T16:33:48.742Z,4.27
2022-10-23T16:36:16.224Z,4.63
2022-10-23T16:39:10.760Z,4.30
2022-10-23T16:41:56.253Z,4.53
2022-10-23T16:44:27.191Z,3.53
2022-10-23T16:46:58.512Z,4.80
2022-10-23T16:49:25.188Z,5.93
2022-10-23T16:51:51.807Z,4.83
2022-10-23T16:54:18.527Z,4.93
2022-10-23T16:56:45.303Z,4.97
2022-10-23T16:59:12.030Z,4.60
2022-10-23T17:01:38.864Z,4.17
2022-10-23T17:04:07.306Z,4.60
2022-10-23T17:06:34.234Z,4.70
2022-10-23T17:09:01.854Z,4.00
2022-10-23T17:11:30.995Z,4.73
2022-10-23T17:14:03.557Z,4.13
2022-10-23T17:16:36.196Z,4.07
2022-10-23T17:19:15.903Z,4.70
2022-10-23T17:21:51.845Z,6.00
2022-10-23T17:24:19.693Z,5.53
2022-10-23T17:26:46.403Z,5.70
2022-10-23T17:29:16.892Z,9.23
2022-10-23T17:31:46.407Z,6.63
2022-10-23T17:34:16.063Z,5.60
2022-10-23T17:36:45.581Z,5.80
2022-10-23T17:39:14.984Z,5.67
2022-10-23T17:41:42.423Z,6.93
2022-10-23T17:44:09.110Z,6.50
2022-10-23T17:46:35.972Z,6.60
2022-10-23T17:49:04.161Z,6.40
2022-10-23T17:51:33.070Z,6.80
2022-10-23T17:54:03.908Z,6.63
2022-10-23T17:56:32.611Z,4.87
2022-10-23T17:59:02.200Z,4.93
2022-10-23T18:01:29.749Z,5.60
2022-10-23T18:03:59.892Z,5.80
2022-10-23T18:06:29.847Z,6.07
2022-10-23T18:08:56.991Z,6.73
2022-10-23T18:11:36.314Z,7.50
2022-10-23T18:14:04.557Z,7.50
2022-10-23T18:16:31.295Z,7.90
2022-10-23T18:19:00.201Z,6.73
2022-10-23T18:21:27.497Z,8.10
2022-10-23T18:23:54.689Z,7.90
2022-10-23T18:26:27.267Z,6.47
2022-10-23T18:28:59.073Z,7.37
2022-10-23T18:31:29.599Z,7.73
2022-10-23T18:34:04.329Z,8.60
2022-10-23T18:36:37.577Z,8.00
2022-10-23T18:39:05.879Z,8.30
2022-10-23T18:41:35.363Z,7.67
2022-10-23T18:44:02.572Z,7.47
2022-10-23T18:46:29.179Z,8.40
2022-10-23T18:48:55.808Z,7.67
2022-10-23T18:51:25.514Z,7.53
2022-10-23T18:53:52.474Z,7.93
2022-10-23T18:56:23.088Z,6.23
2022-10-23T18:58:51.264Z,7.00
2022-10-23T19:01:19.390Z,5.00
2022-10-23T19:03:46.524Z,4.67
2022-10-23T19:06:14.808Z,4.83
2022-10-23T19:08:43.356Z,6.20
2022-10-23T19:11:12.236Z,5.53
2022-10-23T19:13:39.608Z,6.00
2022-10-23T19:16:33.065Z,6.03
2022-10-23T19:19:04.142Z,5.37
2022-10-23T19:21:35.370Z,6.70
2022-10-23T19:24:05.820Z,5.70
2022-10-23T19:26:35.870Z,5.27
2022-10-23T19:29:03.045Z,5.70
2022-10-23T19:31:30.403Z,5.40
2022-10-23T19:33:57.094Z,4.93
2022-10-23T19:36:23.833Z,5.17
2022-10-23T19:38:50.822Z,5.57
2022-10-23T19:41:18.837Z,5.53
2022-10-23T19:43:45.621Z,5.50
2022-10-23T19:46:12.549Z,6.97
2022-10-23T19:48:43.623Z,5.03
2022-10-23T19:51:10.720Z,5.53
2022-10-23T19:53:37.502Z,4.97
2022-10-23T19:56:09.851Z,4.97
2022-10-23T19:58:36.569Z,5.50
2022-10-23T20:01:15.937Z,5.37
2022-10-23T20:03:45.484Z,6.33
2022-10-23T20:06:14.743Z,7.13
2022-10-23T20:08:41.790Z,6.17
2022-10-23T20:11:09.582Z,6.43
2022-10-23T20:13:36.747Z,9.73
2022-10-23T20:16:03.974Z,8.40
2022-10-23T20:18:30.706Z,9.77
2022-10-23T20:20:57.418Z,9.13
2022-10-23T20:23:24.106Z,7.30
2022-10-23T20:25:50.827Z,6.60
2022-10-23T20:28:17.540Z,7.70
2022-10-23T20:30:45.994Z,6.20
2022-10-23T20:33:12.675Z,7.97
2022-10-23T20:35:41.684Z,6.77
2022-10-23T20:38:08.748Z,6.80
2022-10-23T20:40:35.778Z,6.60
2022-10-23T20:43:02.427Z,6.37
2022-10-23T20:45:29.143Z,6.50
2022-10-23T20:47:55.914Z,6.57
2022-10-23T20:50:23.827Z,6.10
2022-10-23T20:52:51.435Z,6.20
2022-10-23T20:55:18.922Z,5.97
2022-10-23T20:57:46.531Z,5.00
2022-10-23T21:00:16.975Z,4.50
2022-10-23T21:02:47.000Z,5.27
2022-10-23T21:05:15.362Z,5.00
2022-10-23T21:07:42.023Z,6.10
2022-10-23T21:10:08.917Z,6.60
2022-10-23T21:12:35.567Z,5.47
2022-10-23T21:15:02.212Z,6.37
2022-10-23T21:17:35.426Z,6.53
2022-10-23T21:20:02.554Z,6.43
2022-10-23T21:22:29.330Z,6.70
2022-10-23T21:24:57.004Z,6.50
2022-10-23T21:27:23.801Z,6.07
2022-10-23T21:29:50.599Z,5.70
2022-10-23T21:32:19.011Z,6.67
2022-10-23T21:34:45.765Z,5.80
2022-10-23T21:37:14.219Z,6.10
2022-10-23T21:39:43.106Z,6.90
2022-10-23T21:42:10.263Z,6.63
2022-10-23T21:44:36.960Z,6.27
2022-10-23T21:47:03.717Z,7.40
2022-10-23T21:49:30.355Z,6.63
2022-10-23T21:51:57.139Z,7.97
2022-10-23T21:54:23.891Z,6.33
2022-10-23T21:56:53.637Z,6.47
2022-10-23T21:59:24.172Z,6.67
2022-10-23T22:01:51.808Z,6.20
2022-10-23T22:04:19.697Z,6.70
2022-10-23T22:06:47.923Z,6.87
2022-10-23T22:09:19.387Z,7.93
2022-10-23T22:11:48.315Z,8.67
2022-10-23T22:14:14.942Z,8.70
2022-10-23T22:16:42.251Z,7.90
2022-10-23T22:19:12.572Z,8.20
2022-10-23T22:21:39.985Z,7.20
2022-10-23T22:24:07.224Z,7.13
2022-10-23T22:26:37.466Z,7.70
2022-10-23T22:29:10.000Z,8.00
2022-10-23T22:31:38.208Z,6.40
2022-10-23T22:34:18.677Z,6.90
2022-10-23T22:36:55.523Z,6.00
2022-10-23T22:39:23.055Z,6.00
2022-10-23T22:41:50.425Z,6.10
2022-10-23T22:44:17.110Z,5.17
2022-10-23T22:46:44.537Z,5.20
2022-10-23T22:49:11.441Z,5.70
2022-10-23T22:51:39.813Z,5.57
2022-10-23T22:54:06.952Z,5.50
2022-10-23T22:56:33.977Z,5.90
2022-10-23T22:59:00.772Z,5.00
2022-10-23T23:01:32.134Z,4.60
2022-10-23T23:04:08.737Z,5.80
2022-10-23T23:06:46.155Z,5.20
2022-10-23T23:09:17.784Z,5.33
2022-10-23T23:11:51.549Z,4.80
2022-10-23T23:14:23.125Z,4.67
2022-10-23T23:16:51.787Z,3.80
2022-10-23T23:19:18.441Z,4.00
2022-10-23T23:21:45.101Z,4.13
2022-10-23T23:24:12.258Z,3.43
2022-10-23T23:26:39.031Z,3.00
2022-10-23T23:29:05.746Z,3.37
2022-10-23T23:31:32.398Z,3.43
2022-10-23T23:33:59.266Z,3.50
2022-10-23T23:36:27.464Z,3.33
2022-10-23T23:38:56.404Z,3.67
2022-10-23T23:41:23.398Z,3.17
2022-10-23T23:43:50.448Z,3.50
2022-10-23T23:46:18.153Z,4.30
2022-10-23T23:48:48.065Z,3.80
2022-10-23T23:51:23.970Z,3.40
2022-10-23T23:53:51.208Z,2.50
2022-10-23T23:56:19.379Z,3.20
2022-10-23T23:58:46.030Z,3.40
